Time;durP1;ratioP1;P1;durP2;ratioP2;P2;SDS_P1;SDS_P2;PMS_P1;PMS_P2;Temp;Humidity;BMP_temperature;BMP_pressure;BME280_temperature;BME280_humidity;BME280_pressure;Samples;Min_cycle;Max_cycle;Signal;HPM_P1;HPM_P2
2023/06/13 00:02:12;;;;;;;1.63;1.30;;;;;;;-145.06;100.00;60892.56;5861194;23;20007;-93
2023/06/13 00:04:51;;;;;;;1.90;1.60;;;;;;;187.52;100.00;60892.56;5860191;23;20615;-94
2023/06/13 00:07:37;;;;;;;2.20;1.60;;;;;;;-145.06;100.00;60892.56;5860434;23;20003;-94
2023/06/13 00:10:16;;;;;;;1.80;1.52;;;;;;;-145.06;100.00;60892.56;5860622;23;20323;-93
2023/06/13 00:12:57;;;;;;;1.83;1.40;;;;;;;-145.06;100.00;60892.56;5860110;23;20011;-94
2023/06/13 00:15:36;;;;;;;2.00;1.70;;;;;;;-145.06;100.00;60892.56;5860509;23;20002;-94
2023/06/13 00:18:15;;;;;;;2.03;1.63;;;;;;;20.54;100.00;60892.56;5860284;23;20034;-92
2023/06/13 00:20:54;;;;;;;2.13;1.63;;;;;;;-145.06;100.00;60892.56;5861310;23;20006;-94
2023/06/13 00:23:33;;;;;;;1.58;1.42;;;;;;;-145.06;100.00;60892.56;5860756;23;20007;-93
2023/06/13 00:26:12;;;;;;;1.73;1.50;;;;;;;-145.06;100.00;60892.56;5860577;23;20030;-93
2023/06/13 00:28:52;;;;;;;3.78;1.55;;;;;;;-145.06;100.00;60892.56;5860740;23;20055;-94
2023/06/13 00:31:32;;;;;;;2.00;1.55;;;;;;;-145.06;100.00;60892.56;5860053;23;20331;-93
2023/06/13 00:34:11;;;;;;;1.48;1.38;;;;;;;-145.06;100.00;60892.56;5860699;23;20081;-94
2023/06/13 00:36:50;;;;;;;2.22;1.70;;;;;;;-145.06;100.00;60892.56;5860182;23;20007;-94
2023/06/13 00:39:29;;;;;;;2.33;1.67;;;;;;;-145.06;100.00;60892.56;5860393;23;20015;-93
2023/06/13 00:42:08;;;;;;;2.10;1.70;;;;;;;-145.06;100.00;60892.56;5860122;23;20006;-93
2023/06/13 00:44:47;;;;;;;1.88;1.40;;;;;;;-145.06;100.00;60892.56;5859922;23;20015;-93
2023/06/13 00:47:26;;;;;;;2.20;1.77;;;;;;;-145.06;100.00;60892.56;5859987;23;20058;-93
2023/06/13 00:50:06;;;;;;;1.95;1.67;;;;;;;-145.06;100.00;60892.56;5860938;23;20011;-95
2023/06/13 00:52:46;;;;;;;1.92;1.73;;;;;;;-145.06;100.00;60892.56;5860604;23;20007;-92
2023/06/13 00:55:26;;;;;;;2.15;1.55;;;;;;;19.78;100.00;60892.56;5859967;23;20074;-95
2023/06/13 00:58:07;;;;;;;2.20;1.60;;;;;;;-145.06;100.00;60892.56;5860735;23;20331;-92
2023/06/13 01:00:46;;;;;;;1.70;1.38;;;;;;;-145.06;100.00;60892.56;5860406;23;20007;-93
2023/06/13 01:03:25;;;;;;;1.47;1.37;;;;;;;19.78;100.00;60892.56;5860378;23;20006;-92
2023/06/13 01:06:04;;;;;;;2.45;1.70;;;;;;;-145.06;100.00;60892.56;5860597;23;20003;-93
2023/06/13 01:08:44;;;;;;;2.43;1.80;;;;;;;19.46;100.00;60892.56;5861753;23;20015;-92
2023/06/13 01:11:33;;;;;;;2.83;1.60;;;;;;;-145.06;100.00;60892.56;5860645;23;20085;-93
2023/06/13 01:14:34;;;;;;;4.07;1.75;;;;;;;-145.06;100.00;60892.56;5860122;23;20619;-93
2023/06/13 01:17:20;;;;;;;1.85;1.52;;;;;;;19.35;100.00;60892.56;5859769;23;20011;-94
2023/06/13 01:20:05;;;;;;;2.17;1.50;;;;;;;-145.06;100.00;60892.56;5860106;23;20010;-95
2023/06/13 01:28:13;;;;;;;1.40;1.30;;;;;;;-145.06;100.00;60892.56;5868839;23;20083;-91
2023/06/13 01:30:53;;;;;;;2.30;1.63;;;;;;;-145.06;100.00;60892.56;5887756;23;20018;-93
2023/06/13 01:33:34;;;;;;;2.22;1.50;;;;;;;-145.06;100.00;60892.56;5888581;23;20006;-93
2023/06/13 01:36:14;;;;;;;1.95;1.63;;;;;;;-145.06;100.00;60892.56;5888221;23;20006;-93
2023/06/13 01:38:54;;;;;;;1.63;1.30;;;;;;;-145.06;100.00;60892.56;5887280;23;20006;-95
2023/06/13 01:41:34;;;;;;;1.95;1.50;;;;;;;-145.06;100.00;60892.56;5888067;23;20010;-92
2023/06/13 01:44:17;;;;;;;3.97;1.38;;;;;;;-145.06;100.00;60892.56;5888041;23;20038;-93
2023/06/13 01:47:15;;;;;;;1.83;1.50;;;;;;;-145.06;100.00;60892.56;5887758;23;20006;-93
2023/06/13 01:50:05;;;;;;;2.40;1.73;;;;;;;-145.06;100.00;60892.56;5887426;23;20014;-94
2023/06/13 01:52:50;;;;;;;1.92;1.52;;;;;;;-145.06;100.00;60892.56;5888536;23;20006;-93
2023/06/13 01:55:43;;;;;;;2.42;1.70;;;;;;;-145.06;100.00;60892.56;5887596;23;20014;-92
2023/06/13 01:58:40;;;;;;;2.17;1.60;;;;;;;-145.06;100.00;60892.56;5887199;23;20496;-93
2023/06/13 02:01:20;;;;;;;2.65;1.80;;;;;;;-145.06;100.00;60892.56;5887958;23;19999;-94
2023/06/13 02:04:00;;;;;;;2.20;1.80;;;;;;;-145.06;100.00;60892.56;5887633;23;20007;-93
2023/06/13 02:06:39;;;;;;;1.67;1.58;;;;;;;18.64;100.00;60892.56;5886669;23;20010;-92
2023/06/13 02:09:17;;;;;;;2.10;1.70;;;;;;;-145.06;100.00;60892.56;5887257;23;20006;-93
2023/06/13 02:11:56;;;;;;;1.80;1.50;;;;;;;-145.06;100.00;60892.56;5886977;23;20006;-92
2023/06/13 02:14:36;;;;;;;2.17;1.65;;;;;;;-145.06;100.00;60892.56;5887394;23;20011;-93
2023/06/13 02:17:16;;;;;;;2.10;1.70;;;;;;;-145.06;100.00;60892.56;5887168;23;20418;-94
2023/06/13 02:19:54;;;;;;;2.65;1.73;;;;;;;-145.06;100.00;60892.56;5887371;23;20334;-93
2023/06/13 02:22:33;;;;;;;2.20;1.83;;;;;;;18.29;100.00;60892.56;5887298;23;20006;-94
2023/06/13 02:25:13;;;;;;;1.90;1.55;;;;;;;18.23;100.00;60892.56;5889087;23;20010;-93
2023/06/13 02:27:53;;;;;;;2.63;1.75;;;;;;;-145.06;100.00;60892.56;5888582;23;20010;-92
2023/06/13 02:30:32;;;;;;;2.55;1.75;;;;;;;-145.06;100.00;60892.56;5889008;23;20010;-94
2023/06/13 02:33:13;;;;;;;3.05;1.90;;;;;;;-145.06;100.00;60892.56;5888767;23;20006;-93
2023/06/13 02:35:52;;;;;;;2.30;1.75;;;;;;;-145.06;100.00;60892.56;5888673;23;20007;-93
2023/06/13 02:38:31;;;;;;;2.00;1.80;;;;;;;-145.06;100.00;60892.56;5889181;23;20014;-92
2023/06/13 02:41:11;;;;;;;1.87;1.30;;;;;;;-145.06;100.00;60892.56;5888644;23;20006;-93
2023/06/13 02:43:50;;;;;;;1.92;1.70;;;;;;;-145.06;100.00;60892.56;5888380;23;20239;-92
2023/06/13 02:46:29;;;;;;;4.47;1.70;;;;;;;-145.06;100.00;60892.56;5888375;23;20006;-93
2023/06/13 02:49:09;;;;;;;2.57;1.47;;;;;;;-145.06;100.00;60892.56;5888969;23;20066;-93
2023/06/13 02:51:48;;;;;;;2.03;1.67;;;;;;;-145.06;100.00;60892.56;5888502;23;20010;-92
2023/06/13 02:54:27;;;;;;;1.65;1.45;;;;;;;-145.06;100.00;60892.56;5899521;23;20010;-93
2023/06/13 04:31:56;;;;;;;1.65;1.40;;;;;;;-145.06;100.00;60892.56;5868011;23;20354;-93
2023/06/13 05:22:57;;;;;;;1.35;1.20;;;;;;;-145.06;100.00;60892.56;5886351;23;19917;-92
2023/06/13 05:25:36;;;;;;;1.35;1.10;;;;;;;-145.06;100.00;60892.56;5867513;23;20006;-92
2023/06/13 05:28:19;;;;;;;1.60;1.27;;;;;;;-145.06;100.00;60892.56;5868082;23;20006;-93
2023/06/13 05:31:00;;;;;;;2.45;1.50;;;;;;;-145.06;100.00;60892.56;5839755;23;20089;-94
2023/06/13 05:33:40;;;;;;;1.90;1.30;;;;;;;-145.06;100.00;60892.56;5840363;23;20441;-93
2023/06/13 05:36:19;;;;;;;1.40;1.15;;;;;;;-145.06;100.00;60892.56;5839616;23;20011;-93
2023/06/13 05:39:00;;;;;;;2.90;1.30;;;;;;;-145.06;100.00;60892.56;5839821;23;20006;-93
2023/06/13 05:41:42;;;;;;;1.45;1.13;;;;;;;18.48;100.00;60892.56;5839701;23;20007;-92
2023/06/13 05:44:21;;;;;;;2.22;1.13;;;;;;;-145.06;100.00;60892.56;5840210;23;20425;-91
2023/06/13 05:47:00;;;;;;;2.28;1.70;;;;;;;-145.06;100.00;60892.56;5839829;23;20007;-92
2023/06/13 05:49:39;;;;;;;1.80;1.30;;;;;;;18.20;100.00;60892.56;5839772;23;20484;-92
2023/06/13 05:52:18;;;;;;;1.20;1.07;;;;;;;-145.06;100.00;60892.56;5840055;23;20263;-93
2023/06/13 05:54:57;;;;;;;1.40;1.10;;;;;;;-145.06;100.00;60892.56;5861901;23;20497;-91
2023/06/13 05:57:44;;;;;;;1.90;1.30;;;;;;;-145.06;100.00;60892.56;5839964;23;20010;-93
2023/06/13 06:00:23;;;;;;;2.55;1.40;;;;;;;18.48;100.00;60892.56;5839631;23;20078;-92
2023/06/13 06:03:03;;;;;;;2.10;1.90;;;;;;;18.47;100.00;60892.56;5839765;23;20019;-92
2023/06/13 06:05:42;;;;;;;2.33;1.80;;;;;;;18.56;100.00;60892.56;5840017;23;20446;-92
2023/06/13 06:08:22;;;;;;;2.08;1.73;;;;;;;-145.06;100.00;60892.56;5839309;23;20015;-92
2023/06/13 06:11:01;;;;;;;2.33;1.70;;;;;;;-145.06;100.00;60892.56;5839752;23;20037;-92
2023/06/13 06:13:40;;;;;;;2.00;1.60;;;;;;;-145.06;100.00;60892.56;5840240;23;20007;-92
2023/06/13 06:16:19;;;;;;;1.50;1.33;;;;;;;-145.06;100.00;60892.56;5839756;23;20006;-92
2023/06/13 06:19:00;;;;;;;1.33;1.10;;;;;;;-145.06;100.00;60892.56;5839953;23;20505;-93
2023/06/13 06:21:39;;;;;;;2.20;1.50;;;;;;;-145.06;100.00;60892.56;5880237;23;20323;-92
2023/06/13 06:24:18;;;;;;;1.67;1.20;;;;;;;-145.06;100.00;60892.56;5840568;23;20006;-93
2023/06/13 06:26:59;;;;;;;1.90;1.50;;;;;;;-145.06;100.00;60892.56;5839992;23;20074;-91
2023/06/13 06:29:39;;;;;;;1.80;1.30;;;;;;;-145.06;100.00;60892.56;5839570;23;20240;-91
2023/06/13 06:32:18;;;;;;;2.00;1.15;;;;;;;-145.06;100.00;60892.56;5840250;23;20007;-93
2023/06/13 06:35:03;;;;;;;1.00;0.90;;;;;;;-145.06;100.00;60892.56;5839522;23;20378;-93
2023/06/13 06:37:43;;;;;;;1.88;1.40;;;;;;;-145.06;100.00;60892.56;5839312;23;20046;-92
2023/06/13 06:40:22;;;;;;;2.63;1.35;;;;;;;-145.06;100.00;60892.56;5840125;23;20330;-91
2023/06/13 06:43:01;;;;;;;1.75;1.08;;;;;;;-145.06;100.00;60892.56;5840416;23;20426;-93
2023/06/13 06:45:40;;;;;;;3.78;0.88;;;;;;;-145.06;100.00;60892.56;5840344;23;20011;-90
2023/06/13 06:48:19;;;;;;;1.13;0.93;;;;;;;187.52;100.00;60892.56;5839411;23;20011;-90
2023/06/13 06:50:58;;;;;;;1.13;1.02;;;;;;;-145.06;100.00;60892.56;5838117;23;20007;-89
2023/06/13 06:53:42;;;;;;;1.10;0.80;;;;;;;-145.06;100.00;60892.56;5838164;23;20011;-90
2023/06/13 06:56:29;;;;;;;1.70;1.08;;;;;;;-145.06;100.00;60892.56;5839620;23;20085;-92
2023/06/13 06:59:08;;;;;;;1.23;0.90;;;;;;;-145.06;100.00;60892.56;5837695;23;20014;-90
2023/06/13 07:01:48;;;;;;;1.50;1.13;;;;;;;-145.06;100.00;60892.56;5837963;23;20002;-90
2023/06/13 07:04:27;;;;;;;1.48;1.05;;;;;;;-145.06;100.00;60892.56;5836727;23;20612;-90
2023/06/13 07:07:06;;;;;;;1.90;1.15;;;;;;;-145.06;100.00;60892.56;5870809;23;20011;-91
2023/06/13 07:09:45;;;;;;;1.30;1.10;;;;;;;-145.06;100.00;60892.56;5837719;23;20011;-90
2023/06/13 07:12:24;;;;;;;1.52;1.30;;;;;;;-145.06;100.00;60892.56;5836993;23;20089;-89
2023/06/13 07:15:03;;;;;;;3.55;1.30;;;;;;;-145.06;100.00;60892.56;5837381;23;20038;-89
2023/06/13 07:17:42;;;;;;;1.73;1.33;;;;;;;-145.06;100.00;60892.56;5868940;23;20015;-89
2023/06/13 07:20:21;;;;;;;1.30;1.20;;;;;;;21.08;100.00;60892.56;5837661;23;20476;-89
2023/06/13 07:23:00;;;;;;;1.80;1.10;;;;;;;-145.06;100.00;60892.56;5834794;23;20019;-91
2023/06/13 07:25:42;;;;;;;1.45;1.30;;;;;;;-145.06;100.00;60892.56;5836609;23;20373;-90
2023/06/13 07:28:21;;;;;;;1.63;1.10;;;;;;;-145.06;100.00;60892.56;5836418;23;20007;-90
2023/06/13 07:31:01;;;;;;;1.10;1.00;;;;;;;-145.06;100.00;60892.56;5836844;23;20011;-89
2023/06/13 07:33:40;;;;;;;1.50;1.10;;;;;;;-145.06;100.00;60892.56;5836994;23;20015;-90
2023/06/13 07:36:19;;;;;;;4.07;1.05;;;;;;;-145.06;100.00;60892.56;5837800;23;20007;-91
2023/06/13 07:38:58;;;;;;;0.93;0.82;;;;;;;-145.06;100.00;60892.56;5836147;23;20326;-89
2023/06/13 07:41:37;;;;;;;1.95;1.30;;;;;;;-145.06;100.00;60892.56;5838023;23;20007;-90
2023/06/13 07:44:17;;;;;;;1.20;1.00;;;;;;;-145.06;100.00;60892.56;5837728;23;20015;-90
2023/06/13 07:46:56;;;;;;;1.05;0.88;;;;;;;-145.06;100.00;60892.56;5838979;23;20002;-91
2023/06/13 07:49:35;;;;;;;1.38;1.10;;;;;;;-145.06;100.00;60892.56;5842420;23;20034;-92
2023/06/13 07:52:14;;;;;;;1.05;0.90;;;;;;;-145.06;100.00;60892.56;5857568;23;20002;-93
2023/06/13 07:54:53;;;;;;;1.17;0.93;;;;;;;-145.06;100.00;60892.56;5848530;23;20007;-90
2023/06/13 07:57:32;;;;;;;0.95;0.82;;;;;;;-145.06;100.00;60892.56;5837876;23;20434;-91
2023/06/13 08:00:16;;;;;;;0.90;0.80;;;;;;;-145.06;100.00;60892.56;5837506;23;20307;-90
2023/06/13 08:02:56;;;;;;;1.40;1.20;;;;;;;-145.06;100.00;60892.56;5837124;23;20038;-90
2023/06/13 08:05:35;;;;;;;1.15;1.02;;;;;;;-145.06;100.00;60892.56;5868425;23;20015;-90
2023/06/13 08:08:14;;;;;;;1.85;1.00;;;;;;;-145.06;100.00;60892.56;5836700;23;20011;-89
2023/06/13 08:10:53;;;;;;;1.00;0.90;;;;;;;-145.06;100.00;60892.56;5836618;23;20437;-90
2023/06/13 08:13:32;;;;;;;1.17;0.88;;;;;;;-145.06;100.00;60892.56;5837856;23;20314;-90
2023/06/13 08:16:11;;;;;;;;;;;;;;;-145.06;100.00;60892.56;5839447;23;20036;-90
2023/06/13 08:18:50;;;;;;;0.80;0.63;;;;;;;-145.06;100.00;60892.56;5838107;23;19909;-90
2023/06/13 08:21:29;;;;;;;0.95;0.85;;;;;;;-145.06;100.00;60892.56;5838768;23;20014;-92
2023/06/13 08:24:08;;;;;;;1.50;1.10;;;;;;;-145.06;100.00;60892.56;5870070;23;20011;-91
2023/06/13 08:26:49;;;;;;;1.00;0.80;;;;;;;-145.06;100.00;60892.56;5839369;23;20454;-92
2023/06/13 08:29:29;;;;;;;1.08;0.82;;;;;;;-145.06;100.00;60892.56;5840016;23;20006;-91
2023/06/13 08:32:08;;;;;;;1.10;0.80;;;;;;;-145.06;100.00;60892.56;5840100;23;20007;-93
2023/06/13 08:34:49;;;;;;;1.00;0.90;;;;;;;-145.06;100.00;60892.56;5838478;23;20473;-93
2023/06/13 08:37:29;;;;;;;1.05;0.90;;;;;;;-145.06;100.00;60892.56;5839603;23;20030;-91
2023/06/13 08:40:10;;;;;;;1.17;0.98;;;;;;;24.30;100.00;60892.56;5839075;23;20007;-92
2023/06/13 08:42:49;;;;;;;1.10;1.00;;;;;;;-145.06;100.00;60892.56;5839604;23;20006;-93
2023/06/13 08:45:29;;;;;;;1.13;1.00;;;;;;;-145.06;100.00;60892.56;5839671;23;20006;-92
2023/06/13 08:48:08;;;;;;;2.75;1.20;;;;;;;-145.06;100.00;60892.56;5838895;23;20007;-91
2023/06/13 08:50:47;;;;;;;;;;;;;;;-145.06;100.00;60892.56;5839123;23;20006;-93
2023/06/13 08:53:31;;;;;;;1.10;1.00;;;;;;;-145.06;100.00;60892.56;5839341;23;19906;-93
2023/06/13 08:56:10;;;;;;;1.33;1.08;;;;;;;-145.06;100.00;60892.56;5838438;23;20007;-93
2023/06/13 08:59:07;;;;;;;1.60;1.10;;;;;;;-145.06;100.00;60892.56;5839564;23;20030;-93
2023/06/13 09:01:47;;;;;;;1.15;0.95;;;;;;;-145.06;100.00;60892.56;5838791;23;20034;-92
2023/06/13 09:04:31;;;;;;;1.20;1.00;;;;;;;-145.06;100.00;60892.56;5838706;23;20007;-92
2023/06/13 09:07:11;;;;;;;1.30;1.00;;;;;;;-145.06;100.00;60892.56;5838172;23;20007;-92
2023/06/13 09:09:59;;;;;;;1.48;1.00;;;;;;;-145.06;100.00;60892.56;5837638;23;20011;-92
2023/06/13 09:12:41;;;;;;;1.02;0.93;;;;;;;-145.06;100.00;60892.56;5838388;23;20461;-93
2023/06/13 09:15:23;;;;;;;3.15;0.80;;;;;;;-145.06;100.00;60892.56;5835577;23;20010;-91
2023/06/13 09:18:03;;;;;;;1.20;1.10;;;;;;;-145.06;100.00;60892.56;5837956;23;20015;-92
2023/06/13 09:20:41;;;;;;;;;;;;;;;-145.06;100.00;60892.56;5838755;23;20319;-93
2023/06/13 09:23:21;;;;;;;1.20;1.00;;;;;;;-145.06;100.00;60892.56;5838651;23;19973;-92
2023/06/13 09:26:02;;;;;;;1.67;1.00;;;;;;;-145.06;100.00;60892.56;5837632;23;20011;-92
2023/06/13 09:28:42;;;;;;;1.52;0.80;;;;;;;-145.06;100.00;60892.56;5837907;23;20034;-92
2023/06/13 09:31:28;;;;;;;0.90;0.80;;;;;;;-145.06;100.00;60892.56;5836751;23;20010;-91
2023/06/13 09:34:07;;;;;;;2.95;0.90;;;;;;;-145.06;100.00;60892.56;5836135;23;20042;-91
2023/06/13 09:36:46;;;;;;;1.17;0.82;;;;;;;-145.06;100.00;60892.56;5836174;23;20330;-91
2023/06/13 09:39:27;;;;;;;1.20;0.93;;;;;;;-145.06;100.00;60892.56;5877408;23;20011;-91
2023/06/13 09:42:06;;;;;;;1.20;0.80;;;;;;;-145.06;100.00;60892.56;5838587;23;20003;-92
2023/06/13 09:44:47;;;;;;;0.85;0.80;;;;;;;-145.06;100.00;60892.56;5836974;23;20010;-92
2023/06/13 09:47:27;;;;;;;1.00;0.90;;;;;;;-145.06;100.00;60892.56;5877997;23;20006;-93
2023/06/13 09:50:08;;;;;;;1.20;0.98;;;;;;;-145.06;100.00;60892.56;5836326;23;20093;-92
2023/06/13 09:52:51;;;;;;;1.00;0.80;;;;;;;-145.06;100.00;60892.56;5836580;23;20034;-91
2023/06/13 09:55:35;;;;;;;2.17;0.93;;;;;;;-145.06;100.00;60892.56;5836589;23;20011;-92
2023/06/13 09:58:17;;;;;;;1.52;1.00;;;;;;;-145.06;100.00;60892.56;5836455;23;20323;-92
2023/06/13 10:00:59;;;;;;;1.00;0.73;;;;;;;-145.06;100.00;60892.56;5836450;23;20010;-93
2023/06/13 10:03:38;;;;;;;1.20;0.70;;;;;;;-145.06;100.00;60892.56;5837305;23;20063;-93
2023/06/13 10:06:17;;;;;;;1.55;1.00;;;;;;;-145.06;100.00;60892.56;5837133;23;20003;-93
2023/06/13 10:08:56;;;;;;;1.58;0.80;;;;;;;-145.06;100.00;60892.56;5836774;23;20015;-92
2023/06/13 10:11:39;;;;;;;1.25;1.15;;;;;;;-145.06;100.00;60892.56;5836277;23;20007;-92
2023/06/13 10:14:22;;;;;;;1.88;0.90;;;;;;;-145.06;100.00;60892.56;5837022;23;20014;-91
2023/06/13 10:17:05;;;;;;;0.77;0.70;;;;;;;-145.06;100.00;60892.56;5836197;23;20003;-92
2023/06/13 10:19:49;;;;;;;0.73;0.70;;;;;;;-145.06;100.00;60892.56;5836444;23;20006;-92
2023/06/13 10:22:29;;;;;;;0.93;0.75;;;;;;;-145.06;100.00;60892.56;5836477;23;20445;-93
2023/06/13 10:25:09;;;;;;;;;;;;;;;-145.06;100.00;60892.56;5868406;23;20010;-93
2023/06/13 10:27:53;;;;;;;1.05;0.90;;;;;;;-145.06;100.00;60892.56;5836580;23;20592;-92
2023/06/13 10:31:03;;;;;;;0.88;0.70;;;;;;;-145.06;100.00;60892.56;5838917;23;20081;-94
2023/06/13 10:33:54;;;;;;;0.93;0.70;;;;;;;-145.06;100.00;60892.56;5870441;23;20378;-92
2023/06/13 10:37:14;;;;;;;0.75;0.70;;;;;;;-145.06;100.00;60892.56;5838472;23;20010;-91
2023/06/13 10:40:15;;;;;;;0.63;0.50;;;;;;;-145.06;100.00;60892.56;5880497;23;20002;-92
2023/06/13 10:43:13;;;;;;;0.73;0.60;;;;;;;-145.06;100.00;60892.56;5840012;23;20007;-91
2023/06/13 10:45:54;;;;;;;1.50;1.00;;;;;;;-145.06;100.00;60892.56;5839851;23;20003;-93
2023/06/13 10:48:43;;;;;;;0.98;0.82;;;;;;;-145.06;100.00;60892.56;5838667;23;20011;-92
2023/06/13 10:51:24;;;;;;;0.70;0.70;;;;;;;-145.06;100.00;60892.56;5837800;23;20014;-93
2023/06/13 10:54:03;;;;;;;1.05;0.70;;;;;;;-145.06;100.00;60892.56;5869757;23;20081;-92
2023/06/13 10:56:43;;;;;;;0.95;0.70;;;;;;;-145.06;100.00;60892.56;5838068;23;20039;-93
2023/06/13 10:59:22;;;;;;;0.52;0.52;;;;;;;-145.06;100.00;60892.56;5839258;23;20015;-92
2023/06/13 11:02:03;;;;;;;1.10;0.80;;;;;;;28.87;100.00;60892.56;5839217;23;20082;-92
2023/06/13 11:04:56;;;;;;;0.88;0.70;;;;;;;-145.06;100.00;60892.56;5869569;23;20141;-92
2023/06/13 11:07:36;;;;;;;1.10;0.60;;;;;;;-145.06;100.00;60892.56;5837796;23;20003;-91
2023/06/13 11:10:17;;;;;;;0.85;0.65;;;;;;;-145.06;100.00;60892.56;5837912;23;20011;-93
2023/06/13 11:12:57;;;;;;;0.70;0.65;;;;;;;-145.06;100.00;60892.56;5846171;23;20007;-92
2023/06/13 11:15:36;;;;;;;1.55;0.70;;;;;;;28.66;100.00;60892.56;5849826;23;20010;-91
2023/06/13 11:18:15;;;;;;;0.50;0.50;;;;;;;-145.06;100.00;60892.56;5839621;23;20007;-92
2023/06/13 11:20:57;;;;;;;1.50;0.70;;;;;;;-145.06;100.00;60892.56;5838115;23;20007;-93
2023/06/13 11:23:36;;;;;;;0.85;0.55;;;;;;;-145.06;100.00;60892.56;5837657;23;20010;-93
2023/06/13 11:26:21;;;;;;;1.00;0.90;;;;;;;-145.06;100.00;60892.56;5837448;23;20480;-92
2023/06/13 11:29:01;;;;;;;1.00;0.70;;;;;;;-145.06;100.00;60892.56;5837753;23;20006;-92
2023/06/13 11:31:41;;;;;;;0.60;0.55;;;;;;;-145.06;100.00;60892.56;5837911;23;20003;-93
2023/06/13 11:34:24;;;;;;;0.95;0.57;;;;;;;-145.06;100.00;60892.56;5838889;23;20081;-92
2023/06/13 11:37:30;;;;;;;0.80;0.68;;;;;;;-145.06;100.00;60892.56;5838980;23;20382;-92
2023/06/13 11:40:35;;;;;;;0.82;0.73;;;;;;;-145.06;100.00;60892.56;5837994;23;20035;-91
2023/06/13 11:43:14;;;;;;;0.93;0.68;;;;;;;-145.06;100.00;60892.56;5837811;23;20016;-91
2023/06/13 11:45:59;;;;;;;0.82;0.65;;;;;;;-145.06;100.00;60892.56;5839329;23;20019;-93
2023/06/13 11:48:39;;;;;;;1.23;0.80;;;;;;;-145.06;100.00;60892.56;5869525;23;20003;-92
2023/06/13 11:51:18;;;;;;;0.70;0.60;;;;;;;-145.06;100.00;60892.56;5838965;23;20362;-92
2023/06/13 11:53:59;;;;;;;;;;;;;;;-145.06;100.00;60892.56;5839677;23;20011;-92
2023/06/13 11:56:51;;;;;;;0.70;0.57;;;;;;;-145.06;100.00;60892.56;5839191;23;20230;-92
2023/06/13 11:59:30;;;;;;;0.80;0.70;;;;;;;-145.06;100.00;60892.56;5839143;23;20081;-91
2023/06/13 12:02:12;;;;;;;1.10;0.73;;;;;;;-145.06;100.00;60892.56;5838074;23;20006;-92
2023/06/13 12:04:52;;;;;;;2.20;0.73;;;;;;;-145.06;100.00;60892.56;5837842;23;20006;-91
2023/06/13 12:07:33;;;;;;;0.98;0.88;;;;;;;104.26;100.00;60892.56;5837305;23;20441;-91
2023/06/13 12:10:13;;;;;;;0.95;0.73;;;;;;;187.52;100.00;60892.56;5835977;23;20042;-93
2023/06/13 12:12:56;;;;;;;1.35;0.70;;;;;;;-145.06;100.00;60892.56;5837731;23;20010;-93
2023/06/13 12:15:35;;;;;;;0.75;0.68;;;;;;;41.86;100.00;60892.56;5837708;23;20090;-91
2023/06/13 12:18:14;;;;;;;1.67;0.90;;;;;;;-145.06;100.00;60892.56;5837994;23;20007;-91
2023/06/13 12:20:56;;;;;;;0.80;0.68;;;;;;;-145.06;100.00;60892.56;5837644;23;20438;-92
2023/06/13 12:23:37;;;;;;;0.70;0.68;;;;;;;-145.06;100.00;60892.56;5839040;23;20011;-92
2023/06/13 12:26:17;;;;;;;2.15;0.57;;;;;;;-145.06;100.00;60892.56;5838624;23;20296;-94
2023/06/13 12:28:59;;;;;;;0.90;0.60;;;;;;;-145.06;100.00;60892.56;5838051;23;20014;-94
2023/06/13 12:31:41;;;;;;;1.02;0.93;;;;;;;-145.06;100.00;60892.56;5839210;23;20015;-93
2023/06/13 12:34:29;;;;;;;0.82;0.70;;;;;;;-145.06;100.00;60892.56;5869824;23;20010;-92
2023/06/13 12:37:10;;;;;;;0.80;0.70;;;;;;;-145.06;100.00;60892.56;5837987;23;20042;-92
2023/06/13 12:40:10;;;;;;;0.70;0.60;;;;;;;-145.06;100.00;60892.56;5838531;23;20066;-93
2023/06/13 12:42:49;;;;;;;0.73;0.68;;;;;;;-145.06;100.00;60892.56;5838056;23;20066;-92
2023/06/13 12:45:29;;;;;;;0.93;0.73;;;;;;;-145.06;100.00;60892.56;5838384;23;20010;-91
2023/06/13 12:48:15;;;;;;;0.82;0.70;;;;;;;-145.06;100.00;60892.56;5879488;23;20002;-93
2023/06/13 12:50:58;;;;;;;0.95;0.80;;;;;;;-145.06;100.00;60892.56;5837499;23;20082;-92
2023/06/13 12:53:40;;;;;;;0.85;0.52;;;;;;;-145.06;100.00;60892.56;5879203;23;20511;-93
2023/06/13 12:56:20;;;;;;;0.95;0.68;;;;;;;-145.06;100.00;60892.56;5837913;23;20014;-92
2023/06/13 12:58:59;;;;;;;0.93;0.70;;;;;;;-145.06;100.00;60892.56;5838291;23;20007;-92
2023/06/13 13:01:39;;;;;;;0.68;0.65;;;;;;;-145.06;100.00;60892.56;5838242;23;20010;-92
2023/06/13 13:04:17;;;;;;;1.02;0.80;;;;;;;-145.06;100.00;60892.56;5868464;23;20006;-93
2023/06/13 13:06:56;;;;;;;0.70;0.60;;;;;;;41.86;100.00;60892.56;5838307;23;20022;-92
2023/06/13 13:09:40;;;;;;;0.63;0.60;;;;;;;187.52;100.00;60892.56;5838039;23;20078;-91
2023/06/13 13:12:19;;;;;;;0.82;0.60;;;;;;;-145.06;100.00;60892.56;5837964;23;20311;-93
2023/06/13 13:14:58;;;;;;;0.93;0.60;;;;;;;-145.06;100.00;60892.56;5838369;23;20006;-92
2023/06/13 13:17:37;;;;;;;1.15;0.90;;;;;;;-145.06;100.00;60892.56;5838520;23;20011;-92
2023/06/13 13:20:16;;;;;;;1.15;0.85;;;;;;;-145.06;100.00;60892.56;5839063;23;20377;-92
2023/06/13 13:22:55;;;;;;;0.93;0.73;;;;;;;-145.06;100.00;60892.56;5837811;23;20414;-93
2023/06/13 13:25:34;;;;;;;0.75;0.75;;;;;;;-145.06;100.00;60892.56;5859154;23;20006;-92
2023/06/13 13:28:13;;;;;;;1.05;0.95;;;;;;;-145.06;100.00;60892.56;5838147;23;20037;-92
2023/06/13 13:30:51;;;;;;;4.25;0.75;;;;;;;-145.06;100.00;60892.56;5837587;23;20029;-92
2023/06/13 13:33:30;;;;;;;0.93;0.70;;;;;;;187.52;100.00;60892.56;5837926;23;20006;-92
2023/06/13 13:36:10;;;;;;;0.82;0.73;;;;;;;-145.06;100.00;60892.56;5837154;23;20007;-93
2023/06/13 13:38:49;;;;;;;1.35;0.70;;;;;;;-145.06;100.00;60892.56;5836572;23;20041;-92
2023/06/13 13:41:32;;;;;;;;;;;;;;;-145.06;100.00;60892.56;5837206;23;20006;-92
2023/06/13 13:44:11;;;;;;;0.50;0.50;;;;;;;-145.06;100.00;60892.56;5837252;23;19909;-92
2023/06/13 13:46:50;;;;;;;1.17;0.80;;;;;;;-145.06;100.00;60892.56;5837911;23;20244;-92
2023/06/13 13:49:31;;;;;;;0.70;0.70;;;;;;;-145.06;100.00;60892.56;5837961;23;20006;-92
2023/06/13 13:52:10;;;;;;;1.08;0.80;;;;;;;30.71;100.00;60892.56;5838204;23;20315;-93
2023/06/13 13:54:50;;;;;;;0.98;0.80;;;;;;;-145.06;100.00;60892.56;5837558;23;20236;-92
2023/06/13 13:57:29;;;;;;;1.67;0.80;;;;;;;-145.06;100.00;60892.56;5837129;23;20434;-92
2023/06/13 14:00:10;;;;;;;0.50;0.50;;;;;;;-145.06;100.00;60892.56;5846715;23;20023;-92
2023/06/13 14:02:50;;;;;;;0.73;0.60;;;;;;;-145.06;100.00;60892.56;5837674;23;20010;-93
2023/06/13 14:05:30;;;;;;;0.98;0.80;;;;;;;-145.06;100.00;60892.56;5837564;23;20010;-92
2023/06/13 14:08:10;;;;;;;0.70;0.60;;;;;;;-145.06;100.00;60892.56;5835375;23;20030;-91
2023/06/13 14:10:49;;;;;;;1.05;0.70;;;;;;;-145.06;100.00;60892.56;5835418;23;20010;-92
2023/06/13 14:13:29;;;;;;;0.85;0.60;;;;;;;-145.06;100.00;60892.56;5867461;23;20034;-92
2023/06/13 14:16:08;;;;;;;2.17;0.63;;;;;;;-145.06;100.00;60892.56;5835594;23;20006;-92
2023/06/13 14:18:47;;;;;;;1.23;0.80;;;;;;;-145.06;100.00;60892.56;5836497;23;20379;-93
2023/06/13 14:21:26;;;;;;;1.77;0.70;;;;;;;-145.06;100.00;60892.56;5836831;23;20039;-92
2023/06/13 14:24:09;;;;;;;0.88;0.57;;;;;;;-145.06;100.00;60892.56;5835794;23;20038;-92
2023/06/13 14:26:49;;;;;;;1.20;0.80;;;;;;;31.47;100.00;60892.56;5836877;23;20170;-92
2023/06/13 14:29:29;;;;;;;1.13;0.90;;;;;;;-145.06;100.00;60892.56;5835223;23;20035;-92
2023/06/13 14:32:08;;;;;;;0.80;0.60;;;;;;;-145.06;100.00;60892.56;5837272;23;20437;-93
2023/06/13 14:34:47;;;;;;;1.05;0.70;;;;;;;-145.06;100.00;60892.56;5836785;23;20323;-92
2023/06/13 14:37:26;;;;;;;0.80;0.60;;;;;;;-145.06;100.00;60892.56;5836272;23;20042;-93
2023/06/13 14:40:05;;;;;;;;;;;;;;;-145.06;100.00;60892.56;5837210;23;20011;-93
2023/06/13 14:42:45;;;;;;;0.70;0.52;;;;;;;-145.06;100.00;60892.56;5837223;23;20305;-93
2023/06/13 14:45:24;;;;;;;1.15;0.70;;;;;;;-145.06;100.00;60892.56;5836723;23;20030;-92